Ridgeville, Georgia
Current Conditions -  °F | °C
As of 2:22 AM on Sunday 23 Nov 2014 (Local Time) from KLHW Reporting Station
Overcast Overcast  
Wind Chill: 59°   Ceiling: 3300
Heat Index: 59°   Visibility: 10mi
Dew Point: 57°   Wind: 6mph
Humidity: 94%   Direction: 30°NNE
Pressure: 30.13"   Gusts: NA
Location:  31.5632°N, 81.4638°W
Report Text: KLHW 230722Z AUTO 03005KT 10SM FEW019 BKN033 OVC045 15/14 A3013 RMK AO2 RAE0722DZB0701E0709
Loading
Personal Weather Stations






























Interactive Weather Map New forecast layout! Learn more

10-Day Weather Forecast

Advertisements
Track Severe Weather on mobile